»·PEaware :: N4657 KRAL-KLGB

N4657 :: KRAL-KLGB

FLIGHT INFORMATION

Flight Status: Arrived
Operator: Privately registered:
United States
More flights under this callsign
Pilot: Daniel P. (20187)
Aircraft: PILATUS PC-12 EAGLE
(PC12)
More flights by this aircraft type
Origin: KRAL Riverside Mun
United States
Destination: KLGB Long Beach
United States
More flights between these airports :: More routes between these airports
Route: PDZ PDZ270/15 DOWDD V394 SLI
File this flight plan on PilotEdge
Remarks: TEC Rooute ONTP9
Altitude:
(Current/Filed)
40ft
Speed:
(Current/Filed)
200kts
Departed: 02-Oct-18 09:04 AM
Arrived: 02-Oct-18 09:24 AM
Distance/Time
Traveled:
36nm/0:20
Distance/Time
To Go:
Arrived

Flight Plot

Page will automatically refresh every two minutes.

Flight plan parsing failed; only flown route is shown


Map Options




Map Legend


Flown Route
Filed Route
Departure Airport
Arrival Airport
Navaid (VOR, NDB)
Fix

Horizontal Profiles

Position Reports

Time Latitude Longitude Heading Altitude Ground
Speed
02-Oct-18 08:45 33.951192 -117.447528 193 764ft 0kts
02-Oct-18 08:46 33.951192 -117.447528 193 764ft 0kts
02-Oct-18 08:47 33.951192 -117.447528 193 764ft 0kts
02-Oct-18 08:48 33.951192 -117.447528 193 764ft 0kts
02-Oct-18 08:49 33.951192 -117.447528 193 764ft 0kts
02-Oct-18 08:50 33.951192 -117.447528 193 764ft 0kts
02-Oct-18 08:51 33.951192 -117.447528 193 764ft 0kts
02-Oct-18 08:52 33.951192 -117.447528 193 764ft 0kts
02-Oct-18 08:53 33.951192 -117.447528 193 764ft 0kts
02-Oct-18 08:54 33.951192 -117.447528 193 764ft 0kts
02-Oct-18 08:55 33.951192 -117.447528 193 764ft 0kts
02-Oct-18 08:56 33.951192 -117.447528 193 764ft 0kts
02-Oct-18 08:57 33.951192 -117.447528 193 764ft 0kts
02-Oct-18 08:58 33.951339 -117.448036 354 762ft 7kts
02-Oct-18 08:59 33.952022 -117.446346 103 771ft 11kts
02-Oct-18 09:00 33.951155 -117.441861 102 789ft 14kts
02-Oct-18 09:01 33.950284 -117.437294 103 809ft 13kts
02-Oct-18 09:02 33.949958 -117.434959 8 814ft 0kts
02-Oct-18 09:03 33.949958 -117.434959 8 814ft 0kts
02-Oct-18 09:04 33.949958 -117.434959 8 814ft 0kts
02-Oct-18 09:05 33.950622 -117.435060 279 815ft 2kts
02-Oct-18 09:06 33.954425 -117.460242 259 1349ft 127kts
02-Oct-18 09:07 33.932868 -117.501919 237 3118ft 168kts
02-Oct-18 09:08 33.920413 -117.554979 275 4008ft 197kts
02-Oct-18 09:09 33.925840 -117.621611 276 4002ft 210kts
02-Oct-18 09:10 33.931536 -117.690572 275 3995ft 211kts
02-Oct-18 09:11 33.937041 -117.757504 275 3989ft 199kts
02-Oct-18 09:12 33.942258 -117.821246 273 3986ft 193kts
02-Oct-18 09:13 33.915194 -117.865361 204 3979ft 189kts
02-Oct-18 09:14 33.865381 -117.878928 192 3984ft 189kts
02-Oct-18 09:15 33.815301 -117.890785 192 3993ft 189kts
02-Oct-18 09:16 33.764297 -117.902903 192 4001ft 190kts
02-Oct-18 09:17 33.715216 -117.914742 198 3998ft 167kts
02-Oct-18 09:18 33.703820 -117.962751 258 3681ft 162kts
02-Oct-18 09:19 33.705205 -118.013779 308 3349ft 166kts
02-Oct-18 09:20 33.737184 -118.053948 313 2805ft 153kts
02-Oct-18 09:21 33.771859 -118.065041 16 1799ft 113kts
02-Oct-18 09:22 33.800531 -118.064980 333 1528ft 108kts
02-Oct-18 09:23 33.820370 -118.090595 286 1140ft 110kts
02-Oct-18 09:24 33.822613 -118.122940 269 510ft 91kts
02-Oct-18 09:25 33.822724 -118.152751 270 45ft 55kts
02-Oct-18 09:26 33.822129 -118.155790 181 48ft 0kts
02-Oct-18 09:27 33.822129 -118.155790 181 48ft 0kts
02-Oct-18 09:28 33.821651 -118.154732 91 46ft 16kts
02-Oct-18 09:29 33.821630 -118.148538 90 40ft 18kts
02-Oct-18 09:30 33.819865 -118.145915 74 36ft 0kts
02-Oct-18 09:31 33.819866 -118.145912 73 36ft 0kts
02-Oct-18 09:32 33.819866 -118.145912 74 36ft 0kts
02-Oct-18 09:33 33.819866 -118.145912 74 36ft 0kts
02-Oct-18 09:34 33.819866 -118.145912 74 36ft 0kts
02-Oct-18 09:35 33.819866 -118.145912 74 36ft 0kts
02-Oct-18 09:36 33.819866 -118.145912 74 36ft 0kts
02-Oct-18 09:37 33.819866 -118.145912 74 36ft 0kts
02-Oct-18 09:38 33.819866 -118.145912 74 36ft 0kts
02-Oct-18 09:39 33.819866 -118.145912 74 36ft 0kts
02-Oct-18 09:40 33.819866 -118.145912 74 36ft 0kts

Navigation Log

Ident Type
Flight plan parsing failed, navigation log unavailable